sensor_id;sensor_type;location;lat;lon;timestamp;P1;durP1;ratioP1;P2;durP2;ratioP2
32096;SDS011;18610;49.916;8.284;2023-08-12T00:01:00;11.60;;;5.13;;
32096;SDS011;18610;49.916;8.284;2023-08-12T00:03:27;9.05;;;5.57;;
32096;SDS011;18610;49.916;8.284;2023-08-12T00:05:54;20.23;;;6.35;;
32096;SDS011;18610;49.916;8.284;2023-08-12T00:08:21;11.68;;;6.45;;
32096;SDS011;18610;49.916;8.284;2023-08-12T00:10:48;9.65;;;5.95;;
32096;SDS011;18610;49.916;8.284;2023-08-12T00:13:15;8.75;;;6.32;;
32096;SDS011;18610;49.916;8.284;2023-08-12T00:15:42;9.25;;;6.03;;
32096;SDS011;18610;49.916;8.284;2023-08-12T00:18:10;10.48;;;5.03;;
32096;SDS011;18610;49.916;8.284;2023-08-12T00:20:37;8.80;;;5.60;;
32096;SDS011;18610;49.916;8.284;2023-08-12T00:23:04;12.70;;;6.00;;
32096;SDS011;18610;49.916;8.284;2023-08-12T00:25:31;10.15;;;6.35;;
32096;SDS011;18610;49.916;8.284;2023-08-12T00:27:57;14.05;;;5.75;;
32096;SDS011;18610;49.916;8.284;2023-08-12T00:30:24;11.30;;;5.95;;
32096;SDS011;18610;49.916;8.284;2023-08-12T00:32:51;12.13;;;5.25;;
32096;SDS011;18610;49.916;8.284;2023-08-12T00:35:19;8.73;;;5.53;;
32096;SDS011;18610;49.916;8.284;2023-08-12T00:37:46;9.85;;;5.18;;
32096;SDS011;18610;49.916;8.284;2023-08-12T00:40:12;7.60;;;5.28;;
32096;SDS011;18610;49.916;8.284;2023-08-12T00:42:39;9.05;;;6.60;;
32096;SDS011;18610;49.916;8.284;2023-08-12T00:45:07;11.13;;;6.20;;
32096;SDS011;18610;49.916;8.284;2023-08-12T00:47:37;12.23;;;6.30;;
32096;SDS011;18610;49.916;8.284;2023-08-12T00:50:05;11.45;;;5.85;;
32096;SDS011;18610;49.916;8.284;2023-08-12T00:52:34;7.70;;;5.68;;
32096;SDS011;18610;49.916;8.284;2023-08-12T00:55:01;13.80;;;6.80;;
32096;SDS011;18610;49.916;8.284;2023-08-12T00:57:28;14.00;;;5.88;;
32096;SDS011;18610;49.916;8.284;2023-08-12T00:59:55;11.52;;;5.70;;
32096;SDS011;18610;49.916;8.284;2023-08-12T01:02:22;9.25;;;6.03;;
32096;SDS011;18610;49.916;8.284;2023-08-12T01:04:49;9.95;;;5.50;;
32096;SDS011;18610;49.916;8.284;2023-08-12T01:07:15;10.10;;;6.25;;
32096;SDS011;18610;49.916;8.284;2023-08-12T01:09:43;8.20;;;5.75;;
32096;SDS011;18610;49.916;8.284;2023-08-12T01:12:12;8.07;;;5.43;;
32096;SDS011;18610;49.916;8.284;2023-08-12T01:14:42;9.15;;;5.72;;
32096;SDS011;18610;49.916;8.284;2023-08-12T01:17:14;8.05;;;4.82;;
32096;SDS011;18610;49.916;8.284;2023-08-12T01:19:42;6.72;;;5.28;;
32096;SDS011;18610;49.916;8.284;2023-08-12T01:22:10;6.63;;;5.57;;
32096;SDS011;18610;49.916;8.284;2023-08-12T01:24:39;8.88;;;5.65;;
32096;SDS011;18610;49.916;8.284;2023-08-12T01:27:07;5.70;;;4.97;;
32096;SDS011;18610;49.916;8.284;2023-08-12T01:29:35;5.95;;;5.35;;
32096;SDS011;18610;49.916;8.284;2023-08-12T01:32:07;8.43;;;5.30;;
32096;SDS011;18610;49.916;8.284;2023-08-12T01:34:45;7.03;;;5.15;;
32096;SDS011;18610;49.916;8.284;2023-08-12T01:37:17;7.43;;;4.88;;
32096;SDS011;18610;49.916;8.284;2023-08-12T01:39:50;8.18;;;5.57;;
32096;SDS011;18610;49.916;8.284;2023-08-12T01:42:20;10.20;;;5.35;;
32096;SDS011;18610;49.916;8.284;2023-08-12T01:44:47;9.27;;;6.32;;
32096;SDS011;18610;49.916;8.284;2023-08-12T01:47:15;9.23;;;5.43;;
32096;SDS011;18610;49.916;8.284;2023-08-12T01:49:42;10.60;;;6.78;;
32096;SDS011;18610;49.916;8.284;2023-08-12T01:52:08;12.40;;;8.32;;
32096;SDS011;18610;49.916;8.284;2023-08-12T01:54:35;20.20;;;8.70;;
32096;SDS011;18610;49.916;8.284;2023-08-12T01:57:04;11.35;;;7.55;;
32096;SDS011;18610;49.916;8.284;2023-08-12T01:59:32;11.65;;;7.43;;
32096;SDS011;18610;49.916;8.284;2023-08-12T02:01:58;12.20;;;7.43;;
32096;SDS011;18610;49.916;8.284;2023-08-12T02:04:25;11.15;;;7.25;;
32096;SDS011;18610;49.916;8.284;2023-08-12T02:06:52;12.50;;;7.30;;
32096;SDS011;18610;49.916;8.284;2023-08-12T02:09:19;10.88;;;7.05;;
32096;SDS011;18610;49.916;8.284;2023-08-12T02:11:46;11.25;;;7.20;;
32096;SDS011;18610;49.916;8.284;2023-08-12T02:14:14;12.23;;;6.28;;
32096;SDS011;18610;49.916;8.284;2023-08-12T02:16:41;10.10;;;6.43;;
32096;SDS011;18610;49.916;8.284;2023-08-12T02:19:08;11.25;;;6.55;;
32096;SDS011;18610;49.916;8.284;2023-08-12T02:21:35;8.75;;;6.07;;
32096;SDS011;18610;49.916;8.284;2023-08-12T02:24:01;10.07;;;5.78;;
32096;SDS011;18610;49.916;8.284;2023-08-12T02:26:28;12.65;;;7.40;;
32096;SDS011;18610;49.916;8.284;2023-08-12T02:28:55;14.10;;;6.90;;
32096;SDS011;18610;49.916;8.284;2023-08-12T02:31:23;13.52;;;7.70;;
32096;SDS011;18610;49.916;8.284;2023-08-12T02:33:50;10.15;;;7.13;;
32096;SDS011;18610;49.916;8.284;2023-08-12T02:36:16;12.60;;;7.45;;
32096;SDS011;18610;49.916;8.284;2023-08-12T02:38:44;17.08;;;7.22;;
32096;SDS011;18610;49.916;8.284;2023-08-12T02:41:11;13.73;;;7.03;;
32096;SDS011;18610;49.916;8.284;2023-08-12T02:43:40;14.07;;;7.63;;
32096;SDS011;18610;49.916;8.284;2023-08-12T02:46:07;16.88;;;8.18;;
32096;SDS011;18610;49.916;8.284;2023-08-12T02:48:35;19.65;;;8.80;;
32096;SDS011;18610;49.916;8.284;2023-08-12T02:51:02;13.85;;;8.50;;
32096;SDS011;18610;49.916;8.284;2023-08-12T02:53:29;12.35;;;7.90;;
32096;SDS011;18610;49.916;8.284;2023-08-12T02:55:55;24.08;;;9.30;;
32096;SDS011;18610;49.916;8.284;2023-08-12T02:58:22;20.02;;;10.48;;
32096;SDS011;18610;49.916;8.284;2023-08-12T03:00:49;17.42;;;10.40;;
32096;SDS011;18610;49.916;8.284;2023-08-12T03:03:15;21.60;;;11.50;;
32096;SDS011;18610;49.916;8.284;2023-08-12T03:05:46;19.98;;;11.10;;
32096;SDS011;18610;49.916;8.284;2023-08-12T03:08:13;15.40;;;11.20;;
32096;SDS011;18610;49.916;8.284;2023-08-12T03:10:40;23.60;;;12.05;;
32096;SDS011;18610;49.916;8.284;2023-08-12T03:13:07;22.45;;;12.45;;
32096;SDS011;18610;49.916;8.284;2023-08-12T03:15:34;14.50;;;11.32;;
32096;SDS011;18610;49.916;8.284;2023-08-12T03:18:04;21.42;;;12.60;;
32096;SDS011;18610;49.916;8.284;2023-08-12T03:20:30;19.25;;;10.48;;
32096;SDS011;18610;49.916;8.284;2023-08-12T03:22:58;22.55;;;12.57;;
32096;SDS011;18610;49.916;8.284;2023-08-12T03:25:25;19.55;;;12.82;;
32096;SDS011;18610;49.916;8.284;2023-08-12T03:27:52;17.58;;;11.82;;
32096;SDS011;18610;49.916;8.284;2023-08-12T03:30:19;19.38;;;11.70;;
32096;SDS011;18610;49.916;8.284;2023-08-12T03:32:46;16.58;;;11.85;;
32096;SDS011;18610;49.916;8.284;2023-08-12T03:35:12;20.63;;;11.90;;
32096;SDS011;18610;49.916;8.284;2023-08-12T03:37:39;19.23;;;11.90;;
32096;SDS011;18610;49.916;8.284;2023-08-12T03:40:08;17.20;;;12.07;;
32096;SDS011;18610;49.916;8.284;2023-08-12T03:42:35;16.50;;;11.57;;
32096;SDS011;18610;49.916;8.284;2023-08-12T03:45:02;17.20;;;13.10;;
32096;SDS011;18610;49.916;8.284;2023-08-12T03:47:29;18.83;;;11.32;;
32096;SDS011;18610;49.916;8.284;2023-08-12T03:49:55;17.48;;;11.23;;
32096;SDS011;18610;49.916;8.284;2023-08-12T03:52:22;15.65;;;11.25;;
32096;SDS011;18610;49.916;8.284;2023-08-12T03:54:49;18.25;;;10.77;;
32096;SDS011;18610;49.916;8.284;2023-08-12T03:57:19;16.42;;;11.15;;
32096;SDS011;18610;49.916;8.284;2023-08-12T03:59:46;15.68;;;10.05;;
32096;SDS011;18610;49.916;8.284;2023-08-12T04:02:12;16.15;;;9.85;;
32096;SDS011;18610;49.916;8.284;2023-08-12T04:04:39;17.00;;;11.05;;
32096;SDS011;18610;49.916;8.284;2023-08-12T04:07:07;16.50;;;10.40;;
32096;SDS011;18610;49.916;8.284;2023-08-12T04:09:34;13.75;;;9.75;;
32096;SDS011;18610;49.916;8.284;2023-08-12T04:12:01;18.95;;;10.95;;
32096;SDS011;18610;49.916;8.284;2023-08-12T04:14:33;15.40;;;10.43;;
32096;SDS011;18610;49.916;8.284;2023-08-12T04:16:59;19.95;;;11.82;;
32096;SDS011;18610;49.916;8.284;2023-08-12T04:19:26;19.40;;;10.00;;
32096;SDS011;18610;49.916;8.284;2023-08-12T04:21:53;12.02;;;8.90;;
32096;SDS011;18610;49.916;8.284;2023-08-12T04:24:19;21.83;;;12.55;;
32096;SDS011;18610;49.916;8.284;2023-08-12T04:26:46;19.77;;;13.45;;
32096;SDS011;18610;49.916;8.284;2023-08-12T04:29:13;15.43;;;11.48;;
32096;SDS011;18610;49.916;8.284;2023-08-12T04:31:41;18.88;;;12.50;;
32096;SDS011;18610;49.916;8.284;2023-08-12T04:34:08;16.02;;;11.68;;
32096;SDS011;18610;49.916;8.284;2023-08-12T04:36:34;14.70;;;12.10;;
32096;SDS011;18610;49.916;8.284;2023-08-12T04:39:01;14.35;;;12.18;;
32096;SDS011;18610;49.916;8.284;2023-08-12T04:41:28;15.68;;;13.10;;
32096;SDS011;18610;49.916;8.284;2023-08-12T04:43:55;18.02;;;13.90;;
32096;SDS011;18610;49.916;8.284;2023-08-12T04:46:21;14.80;;;10.82;;
32096;SDS011;18610;49.916;8.284;2023-08-12T04:48:49;18.88;;;11.40;;
32096;SDS011;18610;49.916;8.284;2023-08-12T04:51:17;13.77;;;11.52;;
32096;SDS011;18610;49.916;8.284;2023-08-12T04:53:43;14.20;;;11.82;;
32096;SDS011;18610;49.916;8.284;2023-08-12T04:56:10;15.20;;;12.30;;
32096;SDS011;18610;49.916;8.284;2023-08-12T04:58:37;16.92;;;11.75;;
32096;SDS011;18610;49.916;8.284;2023-08-12T05:01:03;21.15;;;12.45;;
32096;SDS011;18610;49.916;8.284;2023-08-12T05:03:30;24.20;;;12.95;;
32096;SDS011;18610;49.916;8.284;2023-08-12T05:05:58;17.80;;;11.32;;
32096;SDS011;18610;49.916;8.284;2023-08-12T05:08:25;14.77;;;11.52;;
32096;SDS011;18610;49.916;8.284;2023-08-12T05:10:51;17.25;;;12.02;;
32096;SDS011;18610;49.916;8.284;2023-08-12T05:13:19;17.83;;;11.63;;
32096;SDS011;18610;49.916;8.284;2023-08-12T05:15:45;25.25;;;14.63;;
32096;SDS011;18610;49.916;8.284;2023-08-12T05:18:13;16.95;;;11.93;;
32096;SDS011;18610;49.916;8.284;2023-08-12T05:20:42;19.70;;;10.93;;
32096;SDS011;18610;49.916;8.284;2023-08-12T05:23:10;16.92;;;10.27;;
32096;SDS011;18610;49.916;8.284;2023-08-12T05:25:38;15.25;;;11.38;;
32096;SDS011;18610;49.916;8.284;2023-08-12T05:28:05;14.18;;;11.30;;
32096;SDS011;18610;49.916;8.284;2023-08-12T05:30:32;20.05;;;12.23;;
32096;SDS011;18610;49.916;8.284;2023-08-12T05:32:59;16.60;;;12.20;;
32096;SDS011;18610;49.916;8.284;2023-08-12T05:35:26;20.38;;;12.77;;
32096;SDS011;18610;49.916;8.284;2023-08-12T05:37:53;16.85;;;12.52;;
32096;SDS011;18610;49.916;8.284;2023-08-12T05:40:21;17.73;;;12.43;;
32096;SDS011;18610;49.916;8.284;2023-08-12T05:42:48;16.48;;;12.57;;
32096;SDS011;18610;49.916;8.284;2023-08-12T05:45:14;16.70;;;12.32;;
32096;SDS011;18610;49.916;8.284;2023-08-12T05:47:41;13.00;;;11.13;;
32096;SDS011;18610;49.916;8.284;2023-08-12T05:50:08;17.55;;;10.85;;
32096;SDS011;18610;49.916;8.284;2023-08-12T05:52:35;12.32;;;8.93;;
32096;SDS011;18610;49.916;8.284;2023-08-12T05:55:02;14.07;;;10.07;;
32096;SDS011;18610;49.916;8.284;2023-08-12T05:57:31;14.95;;;12.05;;
32096;SDS011;18610;49.916;8.284;2023-08-12T05:59:57;15.48;;;10.45;;
32096;SDS011;18610;49.916;8.284;2023-08-12T06:02:24;15.07;;;10.48;;
32096;SDS011;18610;49.916;8.284;2023-08-12T06:17:47;10.27;;;8.25;;
32096;SDS011;18610;49.916;8.284;2023-08-12T06:20:14;10.43;;;7.90;;
32096;SDS011;18610;49.916;8.284;2023-08-12T06:22:41;14.30;;;10.70;;
32096;SDS011;18610;49.916;8.284;2023-08-12T06:25:08;10.35;;;7.57;;
32096;SDS011;18610;49.916;8.284;2023-08-12T06:27:34;12.63;;;9.15;;
32096;SDS011;18610;49.916;8.284;2023-08-12T06:30:01;10.38;;;8.10;;
32096;SDS011;18610;49.916;8.284;2023-08-12T06:32:29;13.25;;;8.30;;
32096;SDS011;18610;49.916;8.284;2023-08-12T06:34:56;12.15;;;7.80;;
32096;SDS011;18610;49.916;8.284;2023-08-12T06:37:23;8.70;;;7.30;;
32096;SDS011;18610;49.916;8.284;2023-08-12T06:39:49;10.63;;;7.40;;
32096;SDS011;18610;49.916;8.284;2023-08-12T06:42:16;12.25;;;9.23;;
32096;SDS011;18610;49.916;8.284;2023-08-12T06:44:43;16.23;;;9.05;;
32096;SDS011;18610;49.916;8.284;2023-08-12T06:47:10;15.35;;;10.57;;
32096;SDS011;18610;49.916;8.284;2023-08-12T06:49:38;10.35;;;7.75;;
32096;SDS011;18610;49.916;8.284;2023-08-12T06:52:05;8.90;;;6.45;;
32096;SDS011;18610;49.916;8.284;2023-08-12T06:54:32;9.60;;;6.68;;
32096;SDS011;18610;49.916;8.284;2023-08-12T06:56:58;14.57;;;7.07;;
32096;SDS011;18610;49.916;8.284;2023-08-12T06:59:25;11.27;;;8.63;;
32096;SDS011;18610;49.916;8.284;2023-08-12T07:01:52;13.95;;;7.32;;
32096;SDS011;18610;49.916;8.284;2023-08-12T07:04:18;10.35;;;7.57;;
32096;SDS011;18610;49.916;8.284;2023-08-12T07:06:47;7.82;;;6.68;;
32096;SDS011;18610;49.916;8.284;2023-08-12T07:09:14;7.03;;;5.72;;
32096;SDS011;18610;49.916;8.284;2023-08-12T07:11:41;7.35;;;5.07;;
32096;SDS011;18610;49.916;8.284;2023-08-12T07:14:07;7.75;;;5.28;;
32096;SDS011;18610;49.916;8.284;2023-08-12T07:16:34;15.70;;;5.60;;
32096;SDS011;18610;49.916;8.284;2023-08-12T07:19:01;11.15;;;6.40;;
32096;SDS011;18610;49.916;8.284;2023-08-12T07:21:27;8.30;;;5.43;;
32096;SDS011;18610;49.916;8.284;2023-08-12T07:23:55;8.80;;;5.57;;
32096;SDS011;18610;49.916;8.284;2023-08-12T07:26:22;7.65;;;4.97;;
32096;SDS011;18610;49.916;8.284;2023-08-12T07:28:49;5.85;;;4.57;;
32096;SDS011;18610;49.916;8.284;2023-08-12T07:31:15;8.90;;;5.45;;
32096;SDS011;18610;49.916;8.284;2023-08-12T07:33:42;9.20;;;4.55;;
32096;SDS011;18610;49.916;8.284;2023-08-12T07:36:09;9.88;;;5.28;;
32096;SDS011;18610;49.916;8.284;2023-08-12T07:38:35;8.25;;;4.95;;
32096;SDS011;18610;49.916;8.284;2023-08-12T07:41:03;11.18;;;7.15;;
32096;SDS011;18610;49.916;8.284;2023-08-12T07:43:30;11.98;;;6.15;;
32096;SDS011;18610;49.916;8.284;2023-08-12T07:45:57;7.32;;;5.97;;
32096;SDS011;18610;49.916;8.284;2023-08-12T07:48:23;6.97;;;6.28;;
32096;SDS011;18610;49.916;8.284;2023-08-12T07:50:54;10.00;;;5.57;;
32096;SDS011;18610;49.916;8.284;2023-08-12T07:53:21;12.57;;;5.20;;
32096;SDS011;18610;49.916;8.284;2023-08-12T07:55:48;9.70;;;6.03;;
32096;SDS011;18610;49.916;8.284;2023-08-12T07:58:16;5.70;;;5.13;;
32096;SDS011;18610;49.916;8.284;2023-08-12T08:00:45;7.32;;;5.57;;
32096;SDS011;18610;49.916;8.284;2023-08-12T08:09:55;7.95;;;5.15;;
32096;SDS011;18610;49.916;8.284;2023-08-12T08:12:22;14.57;;;7.85;;
32096;SDS011;18610;49.916;8.284;2023-08-12T08:14:50;9.45;;;5.72;;
32096;SDS011;18610;49.916;8.284;2023-08-12T08:43:52;4.55;;;4.10;;
32096;SDS011;18610;49.916;8.284;2023-08-12T08:46:25;6.20;;;4.00;;
32096;SDS011;18610;49.916;8.284;2023-08-12T08:48:52;7.40;;;4.72;;
32096;SDS011;18610;49.916;8.284;2023-08-12T08:51:20;8.05;;;4.50;;
32096;SDS011;18610;49.916;8.284;2023-08-12T08:56:57;7.50;;;4.57;;
32096;SDS011;18610;49.916;8.284;2023-08-12T08:59:24;14.80;;;4.35;;
32096;SDS011;18610;49.916;8.284;2023-08-12T09:01:53;6.10;;;4.10;;
32096;SDS011;18610;49.916;8.284;2023-08-12T09:04:20;8.60;;;4.40;;
32096;SDS011;18610;49.916;8.284;2023-08-12T09:06:48;5.45;;;4.00;;
32096;SDS011;18610;49.916;8.284;2023-08-12T09:09:18;12.52;;;5.10;;
32096;SDS011;18610;49.916;8.284;2023-08-12T09:11:46;15.57;;;4.03;;
32096;SDS011;18610;49.916;8.284;2023-08-12T09:14:14;4.95;;;4.20;;
32096;SDS011;18610;49.916;8.284;2023-08-12T09:16:41;6.20;;;3.60;;
32096;SDS011;18610;49.916;8.284;2023-08-12T09:19:09;6.50;;;3.67;;
32096;SDS011;18610;49.916;8.284;2023-08-12T09:21:35;4.82;;;3.38;;
32096;SDS011;18610;49.916;8.284;2023-08-12T09:24:03;5.78;;;3.15;;
32096;SDS011;18610;49.916;8.284;2023-08-12T09:26:30;3.88;;;2.90;;
32096;SDS011;18610;49.916;8.284;2023-08-12T09:28:57;8.57;;;3.25;;
32096;SDS011;18610;49.916;8.284;2023-08-12T09:31:26;4.75;;;3.30;;
32096;SDS011;18610;49.916;8.284;2023-08-12T09:33:54;8.07;;;3.10;;
32096;SDS011;18610;49.916;8.284;2023-08-12T09:36:25;7.10;;;3.75;;
32096;SDS011;18610;49.916;8.284;2023-08-12T09:38:54;5.93;;;3.53;;
32096;SDS011;18610;49.916;8.284;2023-08-12T09:41:22;4.40;;;2.92;;
32096;SDS011;18610;49.916;8.284;2023-08-12T09:43:50;8.15;;;3.85;;
32096;SDS011;18610;49.916;8.284;2023-08-12T09:46:17;11.38;;;3.28;;
32096;SDS011;18610;49.916;8.284;2023-08-12T09:48:47;8.93;;;3.13;;
32096;SDS011;18610;49.916;8.284;2023-08-12T09:51:14;9.43;;;3.88;;
32096;SDS011;18610;49.916;8.284;2023-08-12T09:53:43;3.10;;;2.17;;
32096;SDS011;18610;49.916;8.284;2023-08-12T09:56:11;4.55;;;2.97;;
32096;SDS011;18610;49.916;8.284;2023-08-12T09:58:39;11.73;;;4.97;;
32096;SDS011;18610;49.916;8.284;2023-08-12T10:01:09;13.70;;;4.80;;
32096;SDS011;18610;49.916;8.284;2023-08-12T10:03:38;15.55;;;4.75;;
32096;SDS011;18610;49.916;8.284;2023-08-12T10:06:06;10.38;;;3.70;;
32096;SDS011;18610;49.916;8.284;2023-08-12T10:08:33;8.52;;;3.53;;
32096;SDS011;18610;49.916;8.284;2023-08-12T10:11:03;6.63;;;3.70;;
32096;SDS011;18610;49.916;8.284;2023-08-12T10:13:30;7.20;;;3.28;;
32096;SDS011;18610;49.916;8.284;2023-08-12T10:15:57;9.52;;;2.95;;
32096;SDS011;18610;49.916;8.284;2023-08-12T10:18:24;4.18;;;2.55;;
32096;SDS011;18610;49.916;8.284;2023-08-12T10:20:53;5.25;;;2.55;;
32096;SDS011;18610;49.916;8.284;2023-08-12T10:23:22;6.35;;;2.55;;
32096;SDS011;18610;49.916;8.284;2023-08-12T10:25:51;6.50;;;2.67;;
32096;SDS011;18610;49.916;8.284;2023-08-12T10:28:21;5.63;;;2.30;;
32096;SDS011;18610;49.916;8.284;2023-08-12T10:30:48;4.60;;;2.70;;
32096;SDS011;18610;49.916;8.284;2023-08-12T10:33:15;6.60;;;2.90;;
32096;SDS011;18610;49.916;8.284;2023-08-12T10:35:44;6.13;;;3.30;;
32096;SDS011;18610;49.916;8.284;2023-08-12T10:38:16;5.93;;;2.72;;
32096;SDS011;18610;49.916;8.284;2023-08-12T10:40:44;8.98;;;3.90;;
32096;SDS011;18610;49.916;8.284;2023-08-12T10:43:11;5.47;;;3.20;;
32096;SDS011;18610;49.916;8.284;2023-08-12T10:45:42;7.15;;;2.70;;
32096;SDS011;18610;49.916;8.284;2023-08-12T10:48:16;5.38;;;2.90;;
32096;SDS011;18610;49.916;8.284;2023-08-12T10:50:44;6.05;;;3.40;;
32096;SDS011;18610;49.916;8.284;2023-08-12T10:53:20;8.80;;;3.42;;
32096;SDS011;18610;49.916;8.284;2023-08-12T10:55:54;3.78;;;2.80;;
32096;SDS011;18610;49.916;8.284;2023-08-12T10:58:26;5.30;;;3.45;;
32096;SDS011;18610;49.916;8.284;2023-08-12T11:00:58;8.55;;;3.38;;
32096;SDS011;18610;49.916;8.284;2023-08-12T11:03:25;4.18;;;2.92;;
32096;SDS011;18610;49.916;8.284;2023-08-12T11:05:52;7.15;;;3.28;;
32096;SDS011;18610;49.916;8.284;2023-08-12T11:08:24;5.32;;;3.38;;
32096;SDS011;18610;49.916;8.284;2023-08-12T11:10:53;4.28;;;3.10;;
32096;SDS011;18610;49.916;8.284;2023-08-12T11:13:21;3.95;;;2.83;;
32096;SDS011;18610;49.916;8.284;2023-08-12T11:15:49;5.25;;;3.10;;
32096;SDS011;18610;49.916;8.284;2023-08-12T11:18:18;4.18;;;2.90;;
32096;SDS011;18610;49.916;8.284;2023-08-12T11:20:46;5.03;;;2.67;;
32096;SDS011;18610;49.916;8.284;2023-08-12T11:23:14;4.45;;;2.70;;
32096;SDS011;18610;49.916;8.284;2023-08-12T11:25:42;3.90;;;2.90;;
32096;SDS011;18610;49.916;8.284;2023-08-12T11:28:10;7.03;;;3.50;;
32096;SDS011;18610;49.916;8.284;2023-08-12T11:30:36;6.47;;;3.25;;
32096;SDS011;18610;49.916;8.284;2023-08-12T11:33:07;8.15;;;3.22;;
32096;SDS011;18610;49.916;8.284;2023-08-12T11:35:35;6.90;;;2.88;;
32096;SDS011;18610;49.916;8.284;2023-08-12T11:38:03;6.25;;;3.30;;
32096;SDS011;18610;49.916;8.284;2023-08-12T11:40:31;5.53;;;3.40;;
32096;SDS011;18610;49.916;8.284;2023-08-12T11:43:01;8.70;;;3.53;;
32096;SDS011;18610;49.916;8.284;2023-08-12T11:45:29;7.43;;;3.00;;
32096;SDS011;18610;49.916;8.284;2023-08-12T11:47:55;6.97;;;2.60;;
32096;SDS011;18610;49.916;8.284;2023-08-12T11:50:23;4.28;;;2.63;;
32096;SDS011;18610;49.916;8.284;2023-08-12T11:52:52;4.07;;;2.97;;
32096;SDS011;18610;49.916;8.284;2023-08-12T11:55:21;3.22;;;2.22;;
32096;SDS011;18610;49.916;8.284;2023-08-12T11:57:49;3.28;;;2.00;;
32096;SDS011;18610;49.916;8.284;2023-08-12T12:00:17;6.70;;;2.67;;
32096;SDS011;18610;49.916;8.284;2023-08-12T12:02:46;4.53;;;2.35;;
32096;SDS011;18610;49.916;8.284;2023-08-12T12:05:14;3.85;;;2.55;;
32096;SDS011;18610;49.916;8.284;2023-08-12T12:07:41;4.45;;;2.70;;
32096;SDS011;18610;49.916;8.284;2023-08-12T12:10:11;7.97;;;2.67;;
32096;SDS011;18610;49.916;8.284;2023-08-12T12:12:38;2.60;;;1.92;;
32096;SDS011;18610;49.916;8.284;2023-08-12T12:15:05;3.33;;;2.17;;
32096;SDS011;18610;49.916;8.284;2023-08-12T12:17:33;4.97;;;2.65;;
32096;SDS011;18610;49.916;8.284;2023-08-12T12:20:06;2.67;;;2.20;;
32096;SDS011;18610;49.916;8.284;2023-08-12T12:22:36;6.30;;;2.50;;
32096;SDS011;18610;49.916;8.284;2023-08-12T12:25:07;6.20;;;2.40;;
32096;SDS011;18610;49.916;8.284;2023-08-12T12:27:36;4.38;;;2.33;;
32096;SDS011;18610;49.916;8.284;2023-08-12T12:30:03;4.07;;;2.10;;
32096;SDS011;18610;49.916;8.284;2023-08-12T12:32:31;7.55;;;2.28;;
32096;SDS011;18610;49.916;8.284;2023-08-12T12:34:58;8.20;;;2.67;;
32096;SDS011;18610;49.916;8.284;2023-08-12T12:37:25;5.25;;;2.47;;
32096;SDS011;18610;49.916;8.284;2023-08-12T12:39:51;4.43;;;2.30;;
32096;SDS011;18610;49.916;8.284;2023-08-12T12:42:18;4.78;;;2.00;;
32096;SDS011;18610;49.916;8.284;2023-08-12T12:44:46;5.63;;;2.67;;
32096;SDS011;18610;49.916;8.284;2023-08-12T12:47:13;5.60;;;2.58;;
32096;SDS011;18610;49.916;8.284;2023-08-12T12:49:39;5.82;;;2.10;;
32096;SDS011;18610;49.916;8.284;2023-08-12T12:52:07;6.45;;;2.53;;
32096;SDS011;18610;49.916;8.284;2023-08-12T12:54:34;3.95;;;2.10;;
32096;SDS011;18610;49.916;8.284;2023-08-12T12:57:00;4.00;;;2.25;;
32096;SDS011;18610;49.916;8.284;2023-08-12T12:59:28;4.88;;;2.42;;
32096;SDS011;18610;49.916;8.284;2023-08-12T13:01:56;4.25;;;2.08;;
32096;SDS011;18610;49.916;8.284;2023-08-12T13:04:23;5.55;;;2.15;;
32096;SDS011;18610;49.916;8.284;2023-08-12T13:06:52;5.20;;;1.88;;
32096;SDS011;18610;49.916;8.284;2023-08-12T13:09:18;4.40;;;1.90;;
32096;SDS011;18610;49.916;8.284;2023-08-12T13:11:45;6.75;;;2.65;;
32096;SDS011;18610;49.916;8.284;2023-08-12T13:14:12;3.40;;;2.08;;
32096;SDS011;18610;49.916;8.284;2023-08-12T13:16:38;3.90;;;2.17;;
32096;SDS011;18610;49.916;8.284;2023-08-12T13:19:06;4.13;;;2.22;;
32096;SDS011;18610;49.916;8.284;2023-08-12T13:21:33;4.60;;;2.08;;
32096;SDS011;18610;49.916;8.284;2023-08-12T13:23:59;5.47;;;2.35;;
32096;SDS011;18610;49.916;8.284;2023-08-12T13:26:28;4.82;;;2.00;;
32096;SDS011;18610;49.916;8.284;2023-08-12T13:28:55;4.35;;;1.75;;
32096;SDS011;18610;49.916;8.284;2023-08-12T13:31:22;3.60;;;2.05;;
32096;SDS011;18610;49.916;8.284;2023-08-12T13:33:49;6.15;;;2.47;;
32096;SDS011;18610;49.916;8.284;2023-08-12T13:36:17;5.43;;;2.17;;
32096;SDS011;18610;49.916;8.284;2023-08-12T13:38:44;5.22;;;1.92;;
32096;SDS011;18610;49.916;8.284;2023-08-12T13:41:11;4.47;;;2.20;;
32096;SDS011;18610;49.916;8.284;2023-08-12T13:43:37;3.08;;;1.73;;
32096;SDS011;18610;49.916;8.284;2023-08-12T13:46:06;6.60;;;1.85;;
32096;SDS011;18610;49.916;8.284;2023-08-12T13:48:33;4.78;;;2.40;;
32096;SDS011;18610;49.916;8.284;2023-08-12T13:51:00;7.43;;;2.30;;
32096;SDS011;18610;49.916;8.284;2023-08-12T13:53:29;5.70;;;1.88;;
32096;SDS011;18610;49.916;8.284;2023-08-12T13:55:56;3.22;;;1.95;;
32096;SDS011;18610;49.916;8.284;2023-08-12T13:58:22;5.68;;;2.45;;
32096;SDS011;18610;49.916;8.284;2023-08-12T14:00:49;5.13;;;2.35;;
32096;SDS011;18610;49.916;8.284;2023-08-12T14:03:16;9.05;;;2.30;;
32096;SDS011;18610;49.916;8.284;2023-08-12T14:05:43;7.43;;;2.53;;
32096;SDS011;18610;49.916;8.284;2023-08-12T14:08:10;8.77;;;2.60;;
32096;SDS011;18610;49.916;8.284;2023-08-12T14:10:38;4.78;;;3.10;;
32096;SDS011;18610;49.916;8.284;2023-08-12T14:13:05;5.75;;;2.30;;
32096;SDS011;18610;49.916;8.284;2023-08-12T14:15:32;5.50;;;2.75;;
32096;SDS011;18610;49.916;8.284;2023-08-12T14:18:00;2.72;;;2.13;;
32096;SDS011;18610;49.916;8.284;2023-08-12T14:20:26;5.45;;;3.10;;
32096;SDS011;18610;49.916;8.284;2023-08-12T14:22:53;5.47;;;2.72;;
32096;SDS011;18610;49.916;8.284;2023-08-12T14:25:20;8.63;;;3.30;;
32096;SDS011;18610;49.916;8.284;2023-08-12T14:27:48;5.50;;;3.03;;
32096;SDS011;18610;49.916;8.284;2023-08-12T14:30:17;7.97;;;3.40;;
32096;SDS011;18610;49.916;8.284;2023-08-12T14:32:46;4.00;;;2.67;;
32096;SDS011;18610;49.916;8.284;2023-08-12T14:35:12;6.30;;;3.08;;
32096;SDS011;18610;49.916;8.284;2023-08-12T14:37:39;3.88;;;3.08;;
32096;SDS011;18610;49.916;8.284;2023-08-12T14:40:06;10.00;;;3.00;;
32096;SDS011;18610;49.916;8.284;2023-08-12T14:42:34;5.75;;;3.13;;
32096;SDS011;18610;49.916;8.284;2023-08-12T14:45:02;4.50;;;2.47;;
32096;SDS011;18610;49.916;8.284;2023-08-12T14:47:29;8.27;;;2.85;;
32096;SDS011;18610;49.916;8.284;2023-08-12T14:49:56;7.43;;;2.80;;
32096;SDS011;18610;49.916;8.284;2023-08-12T14:52:23;9.70;;;3.28;;
32096;SDS011;18610;49.916;8.284;2023-08-12T14:54:49;6.80;;;2.85;;
32096;SDS011;18610;49.916;8.284;2023-08-12T14:57:16;5.28;;;2.53;;
32096;SDS011;18610;49.916;8.284;2023-08-12T14:59:43;4.32;;;2.40;;
32096;SDS011;18610;49.916;8.284;2023-08-12T15:02:12;7.00;;;2.95;;
32096;SDS011;18610;49.916;8.284;2023-08-12T15:04:39;10.15;;;2.70;;
32096;SDS011;18610;49.916;8.284;2023-08-12T15:07:06;4.53;;;2.55;;
32096;SDS011;18610;49.916;8.284;2023-08-12T15:09:32;7.50;;;3.53;;
32096;SDS011;18610;49.916;8.284;2023-08-12T15:11:59;4.50;;;2.40;;
32096;SDS011;18610;49.916;8.284;2023-08-12T15:14:29;5.13;;;2.17;;
32096;SDS011;18610;49.916;8.284;2023-08-12T15:16:55;5.60;;;2.75;;
32096;SDS011;18610;49.916;8.284;2023-08-12T15:19:23;7.53;;;2.33;;
32096;SDS011;18610;49.916;8.284;2023-08-12T15:21:50;3.30;;;2.47;;
32096;SDS011;18610;49.916;8.284;2023-08-12T15:24:17;6.40;;;2.28;;
32096;SDS011;18610;49.916;8.284;2023-08-12T15:26:43;4.30;;;1.98;;
32096;SDS011;18610;49.916;8.284;2023-08-12T15:29:10;6.40;;;2.72;;